Time;durP1;ratioP1;P1;durP2;ratioP2;P2;SDS_P1;SDS_P2;PMS_P1;PMS_P2;Temp;Humidity;BMP_temperature;BMP_pressure;BME280_temperature;BME280_humidity;BME280_pressure;Samples;Min_cycle;Max_cycle;Signal;HPM_P1;HPM_P2
2021/08/08 00:00:10;;;;;;;16.53;6.13;;;19.00;99.90;;;19.35;85.49;99920.28;5076862;28;20094;-83
2021/08/08 00:02:43;;;;;;;14.15;6.20;;;19.10;99.90;;;19.49;85.88;99947.19;5076416;28;20301;-83
2021/08/08 00:05:13;;;;;;;15.02;7.18;;;19.10;99.90;;;19.42;85.92;99948.47;5076066;28;20067;-83
2021/08/08 00:07:42;;;;;;;14.43;7.47;;;19.10;99.90;;;19.36;86.13;99955.03;5075898;28;20044;-83
2021/08/08 00:10:14;;;;;;;16.90;7.82;;;19.00;99.90;;;19.31;86.25;99951.72;5076301;28;20135;-82
2021/08/08 00:12:44;;;;;;;16.63;7.55;;;19.00;99.90;;;19.41;86.63;99966.41;5075938;28;20128;-83
2021/08/08 00:15:13;;;;;;;;;;;19.00;99.90;;;19.32;86.76;99950.78;5076887;28;20048;-83
2021/08/08 00:17:42;;;;;;;17.92;8.43;;;19.10;99.90;;;19.43;86.50;99960.94;5076399;28;20010;-82
2021/08/08 00:20:12;;;;;;;17.92;8.68;;;19.10;99.90;;;19.38;86.67;99963.00;5074447;28;20143;-84
2021/08/08 00:22:41;;;;;;;17.30;7.93;;;19.10;99.90;;;19.44;86.17;99962.66;5075164;28;20135;-83
2021/08/08 00:25:11;;;;;;;15.18;7.28;;;19.10;99.90;;;18.76;85.44;99861.84;5076088;28;20045;-83
2021/08/08 00:27:40;;;;;;;18.30;7.43;;;19.10;99.90;;;19.23;85.89;99977.22;5076016;28;20459;-81
2021/08/08 00:30:11;;;;;;;14.85;7.72;;;19.00;99.90;;;19.24;85.65;99971.75;5057718;28;20045;-82
2021/08/08 00:32:40;;;;;;;21.00;8.32;;;18.90;99.90;;;19.23;85.62;99966.47;5075690;28;20049;-82
2021/08/08 00:35:15;;;;;;;17.88;7.65;;;18.90;99.90;;;19.07;86.04;99960.19;5058348;28;20050;-82
2021/08/08 00:37:44;;;;;;;15.57;7.55;;;18.90;99.90;;;19.17;86.47;99977.53;5055093;28;20049;-81
2021/08/08 00:40:17;;;;;;;17.45;7.75;;;18.80;99.90;;;19.22;86.83;99970.13;5056275;28;20394;-83
2021/08/08 00:42:47;;;;;;;15.95;7.95;;;18.90;99.90;;;19.12;87.56;99964.41;5057096;28;20048;-83
2021/08/08 00:45:21;;;;;;;19.20;8.75;;;18.80;99.90;;;19.00;88.39;99986.50;5056533;28;20422;-85
2021/08/08 00:47:58;;;;;;;18.95;7.65;;;18.70;99.90;;;18.89;88.29;99984.34;5072067;28;20110;-82
2021/08/08 00:50:32;;;;;;;21.15;8.27;;;18.60;99.90;;;18.80;88.70;99989.34;5055386;28;20045;-84
2021/08/08 00:53:02;;;;;;;27.70;9.67;;;18.50;99.90;;;18.74;89.22;99987.84;5054268;28;20139;-83
2021/08/08 00:55:31;;;;;;;25.20;8.70;;;18.40;99.90;;;18.62;89.47;99975.06;5055277;28;20049;-83
2021/08/08 00:57:59;;;;;;;16.95;8.02;;;18.40;99.90;;;18.67;89.74;99988.25;5054122;28;20056;-83
2021/08/08 01:00:31;;;;;;;26.52;8.93;;;18.40;99.90;;;18.61;90.03;99988.56;5070548;28;20076;-83
2021/08/08 01:03:06;;;;;;;25.48;9.90;;;18.30;99.90;;;18.67;90.04;99994.47;5053766;28;20094;-83
2021/08/08 01:05:43;;;;;;;21.25;8.30;;;18.30;99.90;;;18.74;89.65;99998.56;5053729;28;20056;-85
2021/08/08 01:08:20;;;;;;;24.45;9.38;;;18.40;99.90;;;18.71;89.21;99996.06;5053597;28;20398;-84
2021/08/08 01:10:49;;;;;;;18.20;8.25;;;18.40;99.90;;;18.66;88.94;100013.31;5053798;28;20457;-84
2021/08/08 01:13:18;;;;;;;25.40;9.55;;;18.30;99.90;;;18.64;88.45;100015.22;5053684;28;20045;-84
2021/08/08 01:15:50;;;;;;;19.45;8.45;;;18.30;99.90;;;18.28;88.08;99972.34;5053293;28;20059;-85
2021/08/08 01:18:21;;;;;;;17.52;8.43;;;18.30;99.90;;;18.68;87.66;100023.00;5053472;28;20490;-84
2021/08/08 01:20:51;;;;;;;18.70;8.55;;;18.30;99.90;;;18.60;87.16;100024.34;5053318;28;20053;-83
2021/08/08 01:23:26;;;;;;;15.25;7.85;;;18.30;99.90;;;18.53;86.86;100021.09;5053193;28;20064;-85
2021/08/08 01:25:56;;;;;;;18.30;7.88;;;18.30;99.90;;;18.59;86.77;100034.19;5053388;28;20075;-85
2021/08/08 01:28:25;;;;;;;;;;;18.30;99.90;;;18.56;86.79;100028.13;5053784;28;20080;-85
2021/08/08 01:30:53;;;;;;;15.48;7.45;;;18.30;99.90;;;18.61;86.64;100037.66;5054496;28;19928;-85
2021/08/08 01:33:22;;;;;;;20.90;7.93;;;18.20;99.90;;;18.54;86.71;100044.25;5052912;28;20055;-84
2021/08/08 01:36:11;;;;;;;18.40;8.18;;;18.20;99.90;;;18.52;86.84;100032.75;5053545;28;20064;-83
2021/08/08 01:38:45;;;;;;;19.65;8.48;;;18.20;99.90;;;18.66;86.50;100043.63;5052782;28;20079;-84
2021/08/08 01:41:17;;;;;;;20.25;8.02;;;18.30;99.90;;;18.62;86.19;100057.28;5069854;28;20048;-83
2021/08/08 01:43:55;;;;;;;18.70;7.20;;;18.30;99.90;;;18.60;85.99;100035.91;5053277;28;20049;-83
2021/08/08 01:46:25;;;;;;;20.50;7.50;;;18.40;99.90;;;18.64;86.22;100048.19;5053125;28;20119;-86
2021/08/08 01:49:21;;;;;;;20.90;7.55;;;18.30;99.90;;;18.50;86.20;100061.44;5055038;28;20049;-83
2021/08/08 01:51:50;;;;;;;18.90;7.22;;;18.20;99.90;;;18.51;86.45;100070.31;5036918;28;20040;-84
2021/08/08 01:54:20;;;;;;;16.70;7.17;;;18.20;99.90;;;18.45;86.07;100071.50;5053117;28;20490;-82
2021/08/08 01:56:54;;;;;;;12.88;7.00;;;18.10;99.90;;;18.45;85.88;100067.94;5054489;28;20045;-83
2021/08/08 01:59:24;;;;;;;19.95;7.18;;;18.10;99.90;;;18.23;85.63;100038.66;5052717;28;20409;-82
2021/08/08 02:01:54;;;;;;;;;;;18.10;99.90;;;18.29;85.08;100065.09;5053236;28;20044;-82
2021/08/08 02:04:25;;;;;;;17.75;7.40;;;18.10;99.90;;;18.45;84.93;100081.31;5069222;28;20365;-82
2021/08/08 02:07:05;;;;;;;15.15;6.97;;;18.10;99.90;;;18.22;84.78;100061.00;5052708;28;20109;-82
2021/08/08 02:09:35;;;;;;;17.40;7.50;;;18.10;99.90;;;18.36;84.71;100089.78;5052329;28;20128;-82
2021/08/08 02:12:06;;;;;;;17.55;6.80;;;18.10;99.90;;;18.37;84.49;100087.03;5052831;28;20057;-82
2021/08/08 02:14:36;;;;;;;14.80;7.05;;;18.10;99.90;;;18.51;84.14;100089.06;5069286;28;20502;-83
2021/08/08 02:17:06;;;;;;;13.15;6.55;;;18.10;99.90;;;18.35;83.66;100072.00;5069113;28;20037;-82
2021/08/08 02:19:37;;;;;;;14.35;6.65;;;18.20;99.90;;;18.35;83.54;100088.06;5052104;28;20140;-83
2021/08/08 02:22:06;;;;;;;15.48;6.95;;;18.10;99.90;;;18.50;83.31;100096.25;5052365;28;20487;-82
2021/08/08 02:24:43;;;;;;;16.73;7.40;;;18.20;99.90;;;18.57;83.34;100112.88;5052774;28;20059;-83
2021/08/08 02:27:20;;;;;;;15.90;6.07;;;18.20;99.90;;;18.58;83.17;100111.94;5053714;28;20041;-84
2021/08/08 02:29:58;;;;;;;14.90;6.80;;;18.20;99.90;;;18.53;83.55;100100.56;5052268;28;20140;-82
2021/08/08 02:32:27;;;;;;;16.88;7.10;;;18.30;99.90;;;18.62;83.70;100124.25;5068954;28;20044;-82
2021/08/08 02:34:55;;;;;;;17.40;6.88;;;18.30;99.90;;;18.13;83.65;100045.41;5052285;28;20135;-83
2021/08/08 02:37:24;;;;;;;17.15;7.40;;;18.30;99.90;;;18.50;84.04;100122.16;5051728;28;20077;-82
2021/08/08 02:39:54;;;;;;;17.10;8.48;;;18.20;99.90;;;18.63;84.12;100125.97;5051463;28;20094;-83
2021/08/08 02:42:24;;;;;;;19.10;6.93;;;18.20;99.90;;;18.57;83.71;100140.53;5052192;28;20057;-82
2021/08/08 02:44:53;;;;;;;17.10;8.23;;;18.20;99.90;;;18.58;84.09;100144.94;5051900;28;20545;-83
2021/08/08 02:47:22;;;;;;;14.40;7.15;;;18.20;99.90;;;18.43;83.43;100118.91;5051827;28;20451;-82
2021/08/08 02:49:50;;;;;;;17.73;6.65;;;18.20;99.90;;;18.03;83.41;100062.84;5052334;28;20049;-82
2021/08/08 02:52:19;;;;;;;14.10;6.65;;;18.10;99.90;;;18.36;83.38;100136.19;5051760;28;20052;-82
2021/08/08 02:54:48;;;;;;;18.35;7.28;;;18.10;99.90;;;18.37;82.50;100145.09;5051692;28;20046;-83
2021/08/08 02:57:16;;;;;;;17.42;6.82;;;18.00;99.90;;;17.66;81.60;100044.97;5053247;28;20121;-83
2021/08/08 02:59:47;;;;;;;14.82;6.47;;;18.00;99.90;;;18.41;81.26;100150.22;5051593;28;20055;-83
2021/08/08 03:02:15;;;;;;;15.80;6.43;;;18.00;99.90;;;18.39;80.86;100146.72;5052017;28;20041;-83
2021/08/08 03:04:44;;;;;;;12.75;6.60;;;18.00;99.90;;;18.47;80.60;100151.75;5052069;28;20041;-83
2021/08/08 03:07:13;;;;;;;14.38;6.40;;;18.10;99.90;;;18.37;80.41;100153.13;5051979;28;20079;-83
2021/08/08 03:09:42;;;;;;;19.48;6.93;;;18.00;99.90;;;18.39;80.12;100159.28;5051894;28;20383;-83
2021/08/08 03:12:11;;;;;;;14.48;6.68;;;18.10;99.90;;;18.36;80.17;100160.28;5052207;28;20048;-82
2021/08/08 03:14:42;;;;;;;18.23;6.95;;;18.00;99.90;;;18.28;80.26;100154.41;5053325;28;20047;-82
2021/08/08 03:17:11;;;;;;;18.13;6.82;;;18.00;99.90;;;18.35;80.30;100168.41;5052082;28;20045;-82
2021/08/08 03:19:40;;;;;;;11.63;6.87;;;18.00;99.90;;;18.38;80.36;100166.44;5051885;28;20048;-83
2021/08/08 03:22:08;;;;;;;18.25;7.30;;;18.10;99.90;;;18.10;80.56;100136.53;5051437;28;20087;-82
2021/08/08 03:24:40;;;;;;;18.17;7.60;;;18.00;99.90;;;18.28;80.97;100186.56;5051721;28;20080;-83
2021/08/08 03:27:09;;;;;;;11.98;6.25;;;17.90;99.90;;;18.47;80.38;100179.41;5052947;28;20501;-82
2021/08/08 03:29:40;;;;;;;17.25;6.97;;;18.10;99.90;;;18.51;80.19;100181.00;5051790;28;20140;-83
2021/08/08 03:32:09;;;;;;;16.15;7.13;;;18.10;99.90;;;18.51;80.13;100170.28;5052895;28;20052;-84
2021/08/08 03:34:39;;;;;;;15.00;6.57;;;18.10;99.90;;;18.62;80.11;100177.81;5052644;28;20076;-83
2021/08/08 03:37:08;;;;;;;13.02;6.65;;;18.20;99.90;;;18.54;80.20;100171.97;5049366;28;20045;-83
2021/08/08 03:39:39;;;;;;;12.70;5.75;;;18.30;99.90;;;18.53;80.00;100184.47;5051474;28;20056;-83
2021/08/08 03:42:07;;;;;;;13.75;5.95;;;18.20;99.90;;;18.58;80.21;100197.66;5051707;28;20049;-84
2021/08/08 03:44:36;;;;;;;19.00;6.07;;;18.20;99.90;;;18.52;80.41;100196.16;5051552;28;20049;-83
2021/08/08 03:47:05;;;;;;;14.98;5.75;;;18.20;99.90;;;18.58;80.23;100195.84;5051827;28;20126;-84
2021/08/08 03:49:34;;;;;;;16.85;6.50;;;18.20;99.90;;;18.63;80.28;100200.97;5052158;28;20499;-83
2021/08/08 03:52:05;;;;;;;14.27;6.32;;;18.30;99.90;;;18.33;80.25;100160.41;5052290;28;20091;-84
2021/08/08 03:54:33;;;;;;;20.08;7.10;;;18.20;99.90;;;18.45;80.88;100199.16;5053844;28;20133;-84
2021/08/08 03:57:02;;;;;;;18.95;6.50;;;18.10;99.90;;;18.13;80.58;100130.19;5070327;28;20057;-84
2021/08/08 03:59:32;;;;;;;;;;;18.20;99.90;;;18.35;80.56;100185.31;5058505;28;20056;-84
2021/08/08 04:02:01;;;;;;;18.80;6.53;;;18.10;99.90;;;18.36;80.66;100221.88;5058772;28;20378;-83
2021/08/08 04:04:29;;;;;;;17.52;6.05;;;18.10;99.90;;;18.46;80.58;100198.25;5057761;28;20103;-83
2021/08/08 04:06:58;;;;;;;17.70;6.03;;;18.10;99.90;;;18.53;80.42;100208.59;5057526;28;20053;-84
2021/08/08 04:09:28;;;;;;;18.38;6.30;;;18.20;99.90;;;18.56;79.97;100216.47;5058568;28;20067;-84
2021/08/08 04:11:56;;;;;;;20.00;6.32;;;18.20;99.90;;;18.57;79.79;100217.34;5056463;28;20072;-83
2021/08/08 04:14:25;;;;;;;18.30;6.20;;;18.20;99.90;;;18.48;80.08;100223.16;5055382;28;20049;-84
2021/08/08 04:16:53;;;;;;;20.80;5.40;;;18.10;99.90;;;18.29;79.69;100208.84;5055296;28;20045;-84
2021/08/08 04:19:22;;;;;;;16.33;5.70;;;18.10;99.90;;;18.27;79.57;100206.25;5054819;28;20453;-83
2021/08/08 04:21:50;;;;;;;18.42;6.40;;;18.10;99.90;;;18.39;79.51;100227.06;5055741;28;20045;-85
2021/08/08 04:24:19;;;;;;;18.88;5.90;;;18.00;99.90;;;18.39;79.24;100224.41;5071607;28;20051;-84
2021/08/08 04:26:51;;;;;;;16.30;6.35;;;18.10;99.90;;;18.39;79.13;100231.59;5054614;28;20052;-83
2021/08/08 04:29:21;;;;;;;18.73;5.32;;;18.00;99.90;;;18.36;78.84;100232.59;5054720;28;20049;-84
2021/08/08 04:31:49;;;;;;;21.10;6.65;;;18.00;99.90;;;18.44;78.65;100234.94;5054718;28;20049;-84
2021/08/08 04:34:18;;;;;;;22.00;7.00;;;18.10;99.90;;;18.43;78.73;100250.13;5054452;28;20414;-83
2021/08/08 04:36:46;;;;;;;16.80;5.60;;;18.10;99.90;;;18.27;78.97;100241.06;5056173;28;20041;-84
2021/08/08 04:39:15;;;;;;;16.85;5.93;;;18.00;99.90;;;18.32;79.12;100236.34;5075816;28;20106;-84
2021/08/08 04:41:43;;;;;;;22.42;6.45;;;18.00;99.90;;;18.36;78.73;100248.66;5074646;28;20044;-83
2021/08/08 04:44:13;;;;;;;20.45;6.20;;;18.00;99.90;;;18.26;78.36;100228.59;5075430;28;20098;-85
2021/08/08 04:46:41;;;;;;;20.40;6.40;;;18.00;99.90;;;18.32;78.22;100240.81;5074361;28;20060;-84
2021/08/08 04:49:10;;;;;;;19.48;5.75;;;18.00;99.90;;;18.43;78.22;100254.63;5075141;28;20859;-84
2021/08/08 04:51:38;;;;;;;19.15;6.07;;;18.00;99.90;;;18.46;77.67;100250.00;5057125;28;20055;-84
2021/08/08 04:54:08;;;;;;;22.30;6.35;;;18.10;99.90;;;18.49;77.68;100252.53;5057240;28;20482;-84
2021/08/08 04:56:37;;;;;;;16.98;6.15;;;18.10;99.90;;;18.54;77.76;100250.50;5074279;28;20110;-84
2021/08/08 04:59:05;;;;;;;19.63;6.22;;;18.20;99.90;;;18.65;77.81;100245.53;5057490;28;20068;-84
2021/08/08 05:01:37;;;;;;;27.95;7.03;;;18.30;99.90;;;18.64;78.52;100267.03;5057147;28;20045;-84
2021/08/08 05:04:06;;;;;;;20.58;6.68;;;18.30;99.90;;;18.50;78.98;100238.22;5057309;28;20044;-84
2021/08/08 05:06:35;;;;;;;21.88;6.75;;;18.30;99.90;;;18.56;79.71;100253.13;5057279;28;20049;-85
2021/08/08 05:09:04;;;;;;;19.02;6.32;;;18.20;99.90;;;18.56;80.30;100272.72;5056446;28;20043;-84
2021/08/08 05:11:32;;;;;;;28.88;7.72;;;18.20;99.90;;;18.48;80.06;100257.97;5073747;28;20048;-83
2021/08/08 05:14:01;;;;;;;28.10;8.32;;;18.20;99.90;;;18.29;80.16;100254.38;5057038;28;20051;-84
2021/08/08 05:16:36;;;;;;;26.73;7.32;;;18.10;99.90;;;18.27;80.51;100257.13;5073618;28;20524;-84
2021/08/08 05:19:04;;;;;;;30.27;8.68;;;18.00;99.90;;;18.36;80.79;100272.75;5057122;28;20048;-83
2021/08/08 05:21:34;;;;;;;32.47;7.85;;;18.00;99.90;;;18.27;81.54;100272.31;5073404;28;20105;-83
2021/08/08 05:24:02;;;;;;;38.17;8.85;;;18.00;99.90;;;18.48;82.28;100290.09;5056737;28;20051;-83
2021/08/08 05:26:31;;;;;;;30.02;8.40;;;18.10;99.90;;;18.42;83.64;100293.94;5056706;28;20055;-86
2021/08/08 05:28:59;;;;;;;30.63;8.23;;;18.10;99.90;;;18.50;84.46;100301.63;5056603;28;20053;-85
2021/08/08 05:31:30;;;;;;;21.33;7.75;;;18.10;99.90;;;18.47;85.10;100297.25;5056785;28;20098;-84
2021/08/08 05:34:00;;;;;;;21.38;7.72;;;18.10;99.90;;;18.42;85.46;100295.69;5056644;28;20478;-84
2021/08/08 05:36:29;;;;;;;27.15;7.35;;;18.00;99.90;;;18.33;85.48;100298.81;5056465;28;20045;-84
2021/08/08 05:38:58;;;;;;;28.50;8.15;;;17.90;99.90;;;18.30;85.72;100297.13;5074487;28;20052;-84
2021/08/08 05:41:26;;;;;;;28.13;7.82;;;18.00;99.90;;;18.19;85.84;100299.44;5056325;28;20060;-83
2021/08/08 05:43:55;;;;;;;40.83;9.95;;;17.90;99.90;;;18.23;86.71;100302.84;5056366;28;20076;-83
2021/08/08 05:46:23;;;;;;;25.95;8.50;;;17.80;99.90;;;18.17;86.46;100292.41;5056244;28;20512;-86
2021/08/08 05:48:52;;;;;;;29.90;8.70;;;17.90;99.90;;;18.13;86.61;100302.38;5056279;28;20135;-84
2021/08/08 05:51:24;;;;;;;33.50;8.88;;;17.80;99.90;;;18.04;86.71;100310.78;5055956;28;20055;-85
2021/08/08 05:53:57;;;;;;;35.13;8.57;;;17.70;99.90;;;17.98;86.92;100305.72;5056228;28;20048;-86
2021/08/08 05:56:26;;;;;;;33.53;10.02;;;17.60;99.90;;;17.89;87.19;100311.47;5056202;28;20048;-86
2021/08/08 05:58:54;;;;;;;29.88;8.23;;;17.60;99.90;;;17.83;87.43;100317.94;5073762;28;20397;-85
2021/08/08 06:01:23;;;;;;;30.17;9.05;;;17.50;99.90;;;17.85;87.69;100325.91;5055973;28;20101;-85
2021/08/08 06:03:53;;;;;;;36.92;9.88;;;17.50;99.90;;;17.84;87.71;100334.88;5056301;28;20048;-85
2021/08/08 06:06:23;;;;;;;33.38;8.82;;;17.50;99.90;;;17.78;88.06;100335.13;5055749;28;20511;-86
2021/08/08 06:08:51;;;;;;;40.47;9.43;;;17.50;99.90;;;17.81;88.52;100329.66;5073754;28;20045;-82
2021/08/08 06:11:20;;;;;;;32.35;10.02;;;17.50;99.90;;;17.86;88.42;100346.38;5055851;28;20295;-85
2021/08/08 06:13:48;;;;;;;27.08;8.32;;;17.50;99.90;;;17.71;88.20;100325.66;5055792;28;20066;-84
2021/08/08 06:16:17;;;;;;;33.70;8.75;;;17.50;99.90;;;17.90;88.22;100339.97;5073529;28;20052;-84
2021/08/08 06:18:47;;;;;;;33.63;10.02;;;17.60;99.90;;;17.94;87.61;100355.81;5073697;28;20147;-84
2021/08/08 06:21:16;;;;;;;30.98;9.52;;;17.60;99.90;;;18.02;87.55;100364.38;5072136;28;20076;-84
2021/08/08 06:23:53;;;;;;;37.78;8.95;;;17.60;99.90;;;18.25;87.50;100366.09;5072369;28;20048;-86
2021/08/08 06:26:22;;;;;;;39.15;8.50;;;17.80;99.90;;;18.26;86.26;100364.25;5055625;28;20139;-85
2021/08/08 06:28:53;;;;;;;41.20;9.60;;;17.90;99.90;;;18.23;85.64;100357.25;5073651;28;20469;-85
2021/08/08 06:31:21;;;;;;;29.13;8.38;;;17.90;99.90;;;17.65;85.52;100273.25;5055349;28;20076;-85
2021/08/08 06:33:50;;;;;;;29.48;8.35;;;17.90;99.90;;;18.30;85.12;100380.13;5055331;28;20044;-86
2021/08/08 06:36:18;;;;;;;29.55;7.60;;;17.90;99.90;;;18.29;84.84;100377.53;5073719;28;20052;-87
2021/08/08 06:38:47;;;;;;;30.50;8.07;;;17.90;99.90;;;18.20;84.35;100384.16;5074314;28;20060;-87
2021/08/08 06:41:17;;;;;;;35.22;9.15;;;17.90;99.90;;;18.13;84.25;100379.13;5055979;28;20052;-87
2021/08/08 06:43:51;;;;;;;25.80;8.02;;;17.80;99.90;;;18.15;84.72;100388.84;5056351;28;20130;-84
2021/08/08 06:46:21;;;;;;;32.00;8.52;;;17.80;99.90;;;18.38;84.16;100388.72;5055572;28;20059;-85
2021/08/08 06:48:50;;;;;;;29.75;7.88;;;18.00;99.90;;;18.44;83.86;100409.03;5072157;28;20053;-83
2021/08/08 06:51:18;;;;;;;32.95;8.00;;;18.10;99.90;;;18.30;83.21;100416.75;5055629;28;20048;-86
2021/08/08 06:53:47;;;;;;;25.05;8.23;;;18.00;99.90;;;18.30;83.12;100414.94;5055788;28;20048;-85
2021/08/08 06:56:17;;;;;;;32.67;8.43;;;18.00;99.90;;;18.21;82.93;100411.81;5073341;28;20041;-86
2021/08/08 06:58:45;;;;;;;30.27;8.52;;;17.90;99.90;;;18.15;82.40;100428.13;5055857;28;20469;-84
2021/08/08 07:01:17;;;;;;;29.50;8.57;;;17.80;99.90;;;18.07;82.73;100425.78;5072615;28;20056;-86
2021/08/08 07:03:46;;;;;;;32.72;9.18;;;17.80;99.90;;;18.15;82.40;100429.00;5056189;28;20560;-85
2021/08/08 07:06:15;;;;;;;38.17;8.52;;;17.80;99.90;;;17.90;82.03;100406.88;5073101;28;20469;-86
2021/08/08 07:08:44;;;;;;;32.33;8.73;;;17.70;99.90;;;17.91;82.37;100421.97;5058824;28;20059;-87
2021/08/08 07:11:12;;;;;;;27.85;8.60;;;17.60;99.90;;;17.96;82.81;100425.34;5075847;28;20048;-85
2021/08/08 07:13:43;;;;;;;32.45;9.18;;;17.70;99.90;;;18.00;82.85;100413.59;5064476;28;20079;-86
2021/08/08 07:16:12;;;;;;;28.23;8.57;;;17.70;99.90;;;18.18;82.98;100444.03;5078157;28;20051;-85
2021/08/08 07:18:43;;;;;;;26.55;8.05;;;17.80;99.90;;;18.14;82.66;100448.66;5074831;28;20049;-87
2021/08/08 07:21:12;;;;;;;28.13;9.10;;;17.80;99.90;;;18.16;82.26;100435.19;5096812;28;20029;-84
2021/08/08 07:23:41;;;;;;;24.35;8.70;;;17.80;99.90;;;18.08;81.95;100448.06;5095884;28;20029;-87
2021/08/08 07:26:10;;;;;;;31.15;10.07;;;17.70;99.90;;;18.03;81.56;100446.44;5079204;28;20048;-84
2021/08/08 07:28:38;;;;;;;31.50;9.38;;;17.70;99.90;;;17.90;81.51;100441.66;5074771;28;20044;-86
2021/08/08 07:31:08;;;;;;;32.90;10.40;;;17.60;99.90;;;17.86;82.43;100466.81;5076916;28;20067;-85
2021/08/08 07:33:37;;;;;;;33.33;9.00;;;17.60;99.90;;;17.91;83.46;100467.47;5077545;28;20131;-86
2021/08/08 07:36:06;;;;;;;32.55;10.63;;;17.60;99.90;;;17.90;83.13;100463.06;5060667;28;20051;-82
2021/08/08 07:38:34;;;;;;;34.75;11.25;;;17.60;99.90;;;17.89;83.31;100445.25;5054534;28;20107;-77
2021/08/08 07:41:03;;;;;;;28.83;10.05;;;17.60;99.90;;;17.87;82.79;100455.16;5057182;28;20041;-78
2021/08/08 07:43:41;;;;;;;33.80;11.07;;;17.60;99.90;;;17.96;82.18;100452.97;5055984;28;20386;-80
2021/08/08 07:46:13;;;;;;;39.72;10.38;;;17.60;99.90;;;17.89;81.01;100438.09;5055586;28;20124;-78
2021/08/08 07:48:44;;;;;;;21.50;9.57;;;17.70;99.90;;;18.00;80.91;100477.81;5055930;28;20057;-78
2021/08/08 07:51:13;;;;;;;33.72;10.73;;;17.70;99.90;;;18.07;81.11;100451.66;5057040;28;20128;-77
2021/08/08 07:53:41;;;;;;;24.92;9.30;;;17.70;99.90;;;18.13;81.40;100470.16;5055451;28;20057;-82
2021/08/08 07:56:10;;;;;;;27.20;9.23;;;17.80;99.90;;;18.22;81.16;100470.63;5055342;28;20048;-77
2021/08/08 07:58:39;;;;;;;28.25;8.93;;;17.90;99.90;;;18.19;80.60;100473.44;5055170;28;20502;-81
2021/08/08 08:01:08;;;;;;;29.92;8.70;;;17.90;99.90;;;18.24;79.93;100474.13;5055362;28;20102;-83
2021/08/08 08:03:38;;;;;;;33.05;9.82;;;17.90;99.90;;;18.27;80.75;100474.00;5056777;28;20673;-83
2021/08/08 08:06:07;;;;;;;29.40;9.25;;;17.90;99.90;;;18.37;80.48;100490.56;5056842;28;20033;-83
2021/08/08 08:08:35;;;;;;;23.58;8.20;;;18.00;99.90;;;18.42;80.44;100459.06;5054944;28;20041;-82
2021/08/08 08:11:04;;;;;;;33.67;9.15;;;18.10;99.90;;;18.56;80.07;100488.88;5055097;28;20045;-83
2021/08/08 08:13:32;;;;;;;33.75;8.95;;;18.20;99.90;;;18.43;78.81;100488.50;5055747;28;20501;-85
2021/08/08 08:16:01;;;;;;;28.02;8.88;;;18.10;99.90;;;18.40;78.74;100477.03;5054684;28;20068;-83
2021/08/08 08:18:29;;;;;;;27.90;9.27;;;18.10;99.90;;;18.44;78.45;100487.59;5054742;28;20060;-81
2021/08/08 08:20:59;;;;;;;25.33;8.20;;;18.20;99.90;;;18.52;79.04;100498.84;5054743;28;20509;-78
2021/08/08 08:23:28;;;;;;;22.35;8.00;;;18.20;99.90;;;18.58;79.61;100498.56;5054597;28;20045;-77
2021/08/08 08:25:56;;;;;;;25.48;7.78;;;18.20;99.90;;;18.52;78.59;100514.03;5054842;28;20045;-79
2021/08/08 08:28:29;;;;;;;26.05;8.90;;;18.20;99.90;;;18.54;78.76;100502.28;5054675;28;20045;-79
2021/08/08 08:30:57;;;;;;;29.33;8.15;;;18.20;99.90;;;18.56;78.60;100500.44;5054489;28;20425;-74
2021/08/08 08:33:27;;;;;;;22.50;7.57;;;18.20;99.90;;;18.41;78.36;100493.00;5054231;28;20060;-75
2021/08/08 08:35:59;;;;;;;34.17;8.55;;;18.20;99.90;;;18.34;77.33;100506.72;5054514;28;20057;-79
2021/08/08 08:38:27;;;;;;;;;;;18.00;99.90;;;18.40;77.89;100510.03;5052140;28;20088;-80
2021/08/08 08:40:57;;;;;;;26.52;8.60;;;18.00;99.90;;;18.53;78.15;100494.34;5055492;28;19963;-82
2021/08/08 08:43:28;;;;;;;21.90;7.82;;;18.20;99.90;;;18.75;77.66;100511.25;5053905;28;20456;-79
2021/08/08 08:45:58;;;;;;;31.17;8.68;;;18.40;99.90;;;18.53;76.12;100476.47;5070775;28;20403;-80
2021/08/08 08:48:29;;;;;;;29.73;7.40;;;18.40;99.90;;;18.79;76.28;100515.53;5055380;28;20049;-79
2021/08/08 08:50:59;;;;;;;18.67;7.65;;;18.50;99.90;;;18.95;76.51;100513.03;5055277;28;20120;-76
2021/08/08 08:53:31;;;;;;;24.00;7.55;;;18.60;99.90;;;18.76;75.29;100519.19;5054109;28;20045;-80
2021/08/08 08:56:02;;;;;;;26.23;8.05;;;18.50;99.90;;;19.01;76.11;100519.00;5053926;28;20143;-80
2021/08/08 08:58:37;;;;;;;27.00;8.60;;;18.60;99.90;;;18.94;74.50;100530.94;5053422;28;20080;-79
2021/08/08 09:01:05;;;;;;;27.43;8.17;;;18.60;99.90;;;19.01;74.84;100512.78;5054644;28;20102;-81
2021/08/08 09:03:34;;;;;;;20.45;8.40;;;18.70;99.90;;;19.08;75.16;100549.97;5053664;28;20072;-74
2021/08/08 09:06:05;;;;;;;28.67;8.30;;;18.70;99.90;;;19.16;74.96;100529.06;5053699;28;20045;-77
2021/08/08 09:08:36;;;;;;;21.52;7.35;;;18.80;99.90;;;18.78;73.82;100455.69;5053292;28;20073;-81
2021/08/08 09:11:07;;;;;;;21.63;7.20;;;18.80;99.90;;;19.07;73.33;100523.19;5053560;28;20052;-80
2021/08/08 09:13:56;;;;;;;23.05;7.07;;;18.80;99.90;;;19.06;73.52;100538.44;5054857;28;20127;-82
2021/08/08 09:16:39;;;;;;;25.10;7.63;;;18.70;99.90;;;19.14;73.80;100538.97;5053255;28;20090;-77
2021/08/08 09:19:18;;;;;;;19.67;7.47;;;18.80;99.90;;;19.05;72.84;100546.56;5070180;28;20048;-79
2021/08/08 09:21:49;;;;;;;22.83;7.32;;;18.80;99.90;;;19.01;72.76;100561.03;5070205;28;20415;-85
2021/08/08 09:24:26;;;;;;;;;;;18.80;99.90;;;18.98;72.30;100550.44;5053713;28;20045;-82
2021/08/08 09:27:08;;;;;;;20.85;7.22;;;18.70;99.90;;;18.78;72.34;100522.69;5070112;28;19920;-84
2021/08/08 09:29:41;;;;;;;20.90;7.05;;;18.60;99.90;;;18.97;72.64;100557.59;5053089;28;20486;-81
2021/08/08 09:32:10;;;;;;;19.88;6.28;;;18.60;99.90;;;19.03;71.97;100556.47;5052986;28;20557;-79
2021/08/08 09:34:41;;;;;;;23.65;8.02;;;18.70;99.90;;;19.21;72.86;100569.06;5053342;28;20532;-74
2021/08/08 09:37:19;;;;;;;21.58;7.05;;;18.80;99.90;;;19.30;72.50;100574.03;5053955;28;20045;-82
2021/08/08 09:39:51;;;;;;;21.77;6.82;;;18.90;99.90;;;19.35;71.88;100566.66;5053800;28;20162;-79
2021/08/08 09:42:24;;;;;;;22.05;6.50;;;19.00;99.90;;;19.30;71.23;100565.97;5052906;28;20045;-77
2021/08/08 09:44:56;;;;;;;16.45;6.68;;;19.00;99.90;;;19.35;70.98;100558.63;5052994;28;20048;-81
2021/08/08 09:47:36;;;;;;;18.98;6.60;;;19.10;99.90;;;19.47;70.31;100577.69;5054273;28;20041;-84
2021/08/08 09:50:08;;;;;;;18.75;6.28;;;19.20;99.90;;;19.63;70.99;100586.78;5054140;28;20413;-83
2021/08/08 09:52:38;;;;;;;21.42;7.32;;;19.30;99.90;;;19.60;69.18;100580.72;5054142;28;20124;-81
2021/08/08 09:55:18;;;;;;;;;;;19.30;99.90;;;19.41;69.80;100577.13;5053566;28;20171;-85
2021/08/08 09:57:46;;;;;;;26.67;7.30;;;19.20;99.90;;;19.65;71.17;100595.66;5053689;28;19921;-81
2021/08/08 10:00:30;;;;;;;15.63;7.13;;;19.30;99.90;;;19.88;71.23;100599.09;5054130;28;20107;-77
2021/08/08 10:02:59;;;;;;;17.73;6.15;;;19.50;99.90;;;20.02;69.20;100585.88;5053756;28;20467;-77
2021/08/08 10:05:29;;;;;;;17.40;6.25;;;19.70;99.90;;;20.26;68.86;100603.53;5053513;28;20045;-77
2021/08/08 10:08:00;;;;;;;13.00;6.10;;;19.90;99.90;;;20.36;66.21;100589.56;5053719;28;20479;-77
2021/08/08 10:10:29;;;;;;;15.30;5.95;;;20.00;99.90;;;20.40;65.12;100603.75;5053629;28;20306;-77
2021/08/08 10:13:25;;;;;;;16.02;6.20;;;20.10;99.90;;;20.45;64.15;100609.75;5053420;28;20099;-75
2021/08/08 10:15:55;;;;;;;14.57;5.70;;;20.20;99.90;;;20.39;65.38;100581.38;5052318;28;20135;-80
2021/08/08 10:18:27;;;;;;;15.57;6.15;;;20.20;99.90;;;20.51;65.92;100601.41;5053463;28;20065;-81
2021/08/08 10:20:56;;;;;;;15.75;6.18;;;20.20;99.90;;;20.47;64.79;100589.94;5053991;28;20049;-80